Latest Coastal Weather Observations for Port Macquarie Airport

IDN60701

Issued at 1:21 pm EST Saturday 20 July 2019 (issued every 10 minutes, with the page automatically refreshed every 10 minutes)

About coastal observations | Map of coastal stations | Coastal observations for NSW | Marine services | Other Formats
Station Details ID: 060139 Name: PORT MACQUARIE AIRPORT AWS Lat: -31.43 Lon: 152.87 Height: 4.2 m
Data from the previous 72 hours. | See also: Recent months at Port Macquarie Airport
Date/Time
EST
Wind Sea
Height
m
Swell Vis
km
Cloud Weather Temp
°C
Press
hPa
Rain since
9am
mm
Dir  Spd
kts
Gust
kts
Height
m
Period
s
Dir
20/01:00pm ENE 9 13 - - - - - Partly cloudy - 19.9 1021.8 0.0
20/12:30pm NNE 5 8 - - - - - Partly cloudy - 19.9 1022.2 0.0
20/12:00pm NNE 4 6 - - - - - Mostly cloudy - 19.0 1022.9 0.0
20/11:30am NNE 4 6 - - - - - Partly cloudy - 18.5 1023.6 0.0
20/11:00am NNW 5 7 - - - - - - - 18.1 1024.0 0.0
20/10:30am NW 4 7 - - - - - - - 17.1 1024.5 0.0
20/10:00am WNW 6 8 - - - - - - - 15.1 1024.9 0.0
20/09:30am WNW 6 9 - - - - - - - 14.0 1025.1 0.0
20/09:00am WNW 5 9 - - - - - - - 12.8 1024.8 0.0
20/08:30am WNW 5 8 - - - - - - - 11.2 1024.9 0.0
20/08:00am NW 4 6 - - - - - - - 9.8 1024.7 0.0
20/07:30am W 3 5 - - - - - - - 8.7 1024.5 0.0
20/07:00am W 5 8 - - - - - - - 8.1 1024.4 0.0
20/06:30am WNW 9 13 - - - - - - - 8.2 1024.2 0.0
20/06:00am W 7 10 - - - - - - - 7.8 1023.7 0.0
20/05:30am W 5 7 - - - - - - - 7.8 1023.4 0.0
20/05:00am W 5 6 - - - - - - - 7.8 1023.2 0.0
20/04:30am W 4 6 - - - - - - - 8.2 1023.1 0.0
20/04:00am W 6 9 - - - - - - - 8.5 1023.1 0.0
20/03:30am WNW 7 10 - - - - - - - 9.1 1023.1 0.0
20/03:00am WNW 10 12 - - - - - - - 9.3 1023.1 0.0
20/02:30am WNW 7 11 - - - - - - - 9.0 1023.4 0.0
20/02:00am W 6 8 - - - - - - - 9.3 1023.5 0.0
20/01:30am WNW 7 9 - - - - - - - 9.4 1023.5 0.0
20/01:00am W 7 12 - - - - - - - 9.9 1023.6 0.0
20/12:46am W 9 11 - - - - - Partly cloudy - 10.0 1023.5 0.0
20/12:30am W 8 13 - - - - - Partly cloudy - 10.0 1023.5 0.0
20/12:20am W 6 10 - - - - - Partly cloudy - 9.8 1023.5 0.0
20/12:00am W 5 8 - - - - - - - 9.4 1023.6 0.0
 
Date/Time
EST
Wind Sea
Height
m
Swell Vis
km
Cloud Weather Temp
°C
Press
hPa
Rain since
9am
mm
Dir  Spd
kts
Gust
kts
Height
m
Period
s
Dir
19/11:30pm W 8 10 - - - - - - - 9.6 1023.6 0.0
19/11:00pm W 3 6 - - - - - - - 6.5 1023.6 0.0
19/10:43pm WNW 1 4 - - - - - Partly cloudy - 5.2 1023.6 0.0
19/10:30pm CALM 0 0 - - - - - Partly cloudy - 4.3 1023.7 0.0
19/10:00pm CALM 0 0 - - - - - Partly cloudy - 4.9 1023.6 0.0
19/09:30pm CALM 0 0 - - - - - Cloudy - 3.5 1023.4 0.0
19/09:00pm CALM 0 0 - - - - - Mostly cloudy - 5.2 1023.1 0.0
19/08:30pm CALM 0 0 - - - - - Cloudy - 5.6 1022.9 0.0
19/08:00pm CALM 0 0 - - - - 8 Cloudy - 4.6 1022.7 0.0
19/07:30pm CALM 0 0 - - - - 7 Partly cloudy - 6.1 1022.2 0.0
19/07:00pm SW 3 4 - - - - - Partly cloudy - 6.4 1021.8 0.0
19/06:52pm W 2 4 - - - - - Partly cloudy - 6.5 1021.8 0.0
19/06:30pm CALM 0 0 - - - - - - - 7.5 1021.6 0.0
19/06:00pm CALM 0 0 - - - - - - - 9.1 1021.2 0.0
19/05:30pm S 1 4 - - - - - - - 12.8 1020.8 0.0
19/05:00pm SSE 6 8 - - - - - - - 13.9 1020.3 0.0
19/04:30pm S 8 10 - - - - - - - 15.4 1020.0 0.0
19/04:00pm SE 8 11 - - - - - - - 16.6 1019.6 0.0
19/03:30pm SE 7 11 - - - - - - - 17.4 1019.2 0.0
19/03:00pm SSE 8 11 - - - - - - - 17.7 1019.2 0.0
19/02:30pm SSE 8 12 - - - - - - - 17.6 1018.9 0.0
19/02:00pm SSE 9 12 - - - - - Partly cloudy - 17.3 1018.8 0.0
19/01:30pm SSE 9 12 - - - - - - - 17.8 1018.7 0.0
19/01:00pm SE 7 11 - - - - - - - 18.6 1018.6 0.0
19/12:30pm W 4 9 - - - - - - - 19.3 1018.7 0.0
19/12:00pm NW 5 8 - - - - - - - 19.1 1019.2 0.0
19/11:30am WNW 5 8 - - - - - - - 18.1 1019.5 0.0
19/11:00am NW 5 8 - - - - - - - 17.6 1020.1 0.0
19/10:30am WNW 7 9 - - - - - - - 16.1 1020.3 0.0
19/10:00am WNW 7 9 - - - - - - - 14.2 1020.5 0.0
19/09:30am WNW 7 10 - - - - - - - 12.9 1020.3 0.0
19/09:00am NW 8 11 - - - - - - - 11.0 1020.3 0.0
19/08:30am WNW 7 10 - - - - - - - 9.9 1020.5 0.0
19/08:00am WNW 8 11 - - - - - - - 8.7 1020.3 0.0
19/07:30am WNW 6 8 - - - - - - - 6.2 1020.1 0.0
19/07:00am WNW 5 6 - - - - - - - 4.0 1020.0 0.0
19/06:30am WNW 1 4 - - - - - - - 3.6 1019.6 0.0
19/06:00am WNW 3 4 - - - - - - - 2.7 1019.4 0.0
19/05:30am NNE 2 4 - - - - - - - 2.6 1019.1 0.0
19/05:00am CALM 0 0 - - - - - - - 0.6 1018.9 0.0
19/04:30am CALM 0 3 - - - - - - - 2.1 1018.6 0.0
19/04:00am CALM 0 0 - - - - - - - 1.7 1018.3 0.0
19/03:30am CALM 0 0 - - - - - - - 0.7 1018.3 0.0
19/03:00am CALM 0 0 - - - - - - - 2.9 1018.3 0.0
19/02:30am CALM 0 0 - - - - - - - 2.8 1018.3 0.0
19/02:00am NNW 2 4 - - - - - - - 3.0 1018.5 0.0
19/01:30am CALM 0 0 - - - - - - - 1.6 1018.3 0.0
19/01:00am NW 3 4 - - - - - - - 2.4 1018.2 0.0
19/12:30am CALM 0 0 - - - - - - - 3.4 1018.4 0.0
19/12:21am CALM 0 0 - - - - - Partly cloudy - 2.4 1018.5 0.0
19/12:00am CALM 0 0 - - - - - Partly cloudy - 3.4 1018.5 0.0
 
Date/Time
EST
Wind Sea
Height
m
Swell Vis
km
Cloud Weather Temp
°C
Press
hPa
Rain since
9am
mm
Dir  Spd
kts
Gust
kts
Height
m
Period
s
Dir
18/11:49pm CALM 0 0 - - - - - Partly cloudy - 2.9 1018.4 0.0
18/11:30pm CALM 0 0 - - - - - - - 2.5 1018.5 0.0
18/11:00pm CALM 0 0 - - - - - - - 3.5 1018.8 0.0
18/10:30pm CALM 0 0 - - - - - - - 4.1 1018.7 0.0
18/10:00pm NNW 1 4 - - - - 10 - - 4.6 1018.4 0.0
18/09:30pm CALM 0 0 - - - - 10 - - 5.4 1018.3 0.0
18/09:00pm CALM 0 3 - - - - 10 - - 5.7 1018.1 0.0
18/08:30pm CALM 0 0 - - - - 10 - - 7.5 1017.8 0.0
18/08:00pm WSW 1 4 - - - - - - - 7.3 1017.5 0.0
18/07:30pm WNW 3 5 - - - - - Partly cloudy - 9.3 1017.4 0.0
18/07:00pm SW 5 6 - - - - - - - 11.6 1016.8 0.0
18/06:30pm SSW 6 7 - - - - - - - 13.6 1016.4 0.0
18/06:00pm SSW 7 10 - - - - - - - 14.3 1016.1 0.0
18/05:30pm SSW 9 12 - - - - - - - 15.7 1015.8 0.0
18/05:00pm S 10 14 - - - - - - - 16.6 1015.2 0.0
18/04:30pm SSE 9 14 - - - - - - - 17.7 1014.9 0.0
18/04:00pm S 10 15 - - - - - Partly cloudy - 18.8 1014.5 0.0
18/03:52pm S 8 13 - - - - - Partly cloudy - 19.4 1014.4 0.0
18/03:30pm SW 13 21 - - - - - Partly cloudy - 20.6 1014.1 0.0
18/03:14pm SW 11 17 - - - - - Partly cloudy - 20.9 1013.9 0.0
18/03:00pm SW 11 17 - - - - - Mostly cloudy - 21.4 1013.6 0.0
18/02:30pm SW 8 12 - - - - - Partly cloudy - 21.3 1013.3 0.0
18/02:00pm SW 12 15 - - - - - Partly cloudy - 20.8 1013.5 0.0
18/01:30pm WSW 9 16 - - - - - - - 21.2 1013.4 0.0
18/01:00pm WSW 7 9 - - - - - - - 20.3 1013.6 0.0
18/12:30pm W 7 10 - - - - - - - 20.2 1014.0 0.0
18/12:00pm W 7 9 - - - - - - - 19.9 1014.7 0.0
18/11:30am WSW 8 15 - - - - - - - 19.4 1015.3 0.0
18/11:00am W 10 14 - - - - - - - 18.5 1015.7 0.0
18/10:30am W 11 16 - - - - - - - 17.3 1015.8 0.0
18/10:00am W 11 16 - - - - - - - 16.5 1015.7 0.0
18/09:30am W 10 16 - - - - - - - 15.5 1015.8 0.0
18/09:00am W 11 16 - - - - - - - 14.6 1015.9 0.0
18/08:30am W 10 17 - - - - - - - 13.6 1015.6 0.0
18/08:00am WNW 9 13 - - - - - - - 12.5 1015.4 0.0
18/07:30am WNW 5 8 - - - - - - - 10.7 1015.1 0.0
18/07:00am W 4 8 - - - - - - - 9.3 1014.9 0.0
18/06:30am NW 5 8 - - - - - - - 6.7 1014.7 0.0
18/06:00am NW 5 7 - - - - - - - 8.9 1014.5 0.0
18/05:30am NW 4 6 - - - - - - - 8.8 1014.4 0.0
18/05:00am NNW 7 9 - - - - - - - 8.4 1014.3 0.0
18/04:30am NNW 5 6 - - - - - - - 8.4 1014.2 0.0
18/04:00am WNW 5 9 - - - - - - - 8.8 1014.1 0.0
18/03:30am NNW 3 6 - - - - - - - 8.2 1014.4 0.0
18/03:00am W 7 11 - - - - - Cloudy - 9.9 1014.6 0.0
18/02:30am WSW 7 9 - - - - - - - 10.2 1014.7 0.0
18/02:00am WSW 7 9 - - - - - - - 10.0 1014.5 0.0
18/01:30am W 7 10 - - - - - - - 9.0 1014.4 0.0
18/01:00am W 6 9 - - - - - - - 7.1 1014.5 0.0
18/12:30am W 7 9 - - - - - - - 8.6 1014.4 0.0
18/12:28am WNW 8 9 - - - - - - - 8.6 1014.4 0.0
18/12:00am NW 3 6 - - - - 10 - - 3.6 1014.2 0.0
 
Date/Time
EST
Wind Sea
Height
m
Swell Vis
km
Cloud Weather Temp
°C
Press
hPa
Rain since
9am
mm
Dir  Spd
kts
Gust
kts
Height
m
Period
s
Dir
17/11:30pm WNW 5 8 - - - - - - - 6.7 1014.1 0.0
17/11:00pm WNW 3 5 - - - - - - - 3.2 1014.5 0.0
17/10:30pm CALM 0 0 - - - - - - - 4.8 1014.6 0.0
17/10:00pm WSW 2 4 - - - - 10 - - 4.7 1014.8 0.0
17/09:30pm NW 6 7 - - - - 10 - - 7.8 1015.0 0.0
17/09:00pm NW 5 7 - - - - 10 - - 7.1 1015.3 0.0
17/08:30pm NW 5 6 - - - - 10 - - 6.1 1015.4 0.0
17/08:00pm CALM 0 0 - - - - 10 - - 6.8 1015.7 0.0
17/07:30pm S 1 3 - - - - 10 - - 6.6 1015.4 0.0
17/07:00pm NW 4 5 - - - - 10 - - 8.7 1015.2 0.0
17/06:30pm NNW 3 6 - - - - 10 - - 9.7 1015.2 0.0
17/06:00pm N 3 3 - - - - - - - 10.4 1015.0 0.0
17/05:30pm N 4 4 - - - - - - - 11.4 1014.9 0.0
17/05:00pm N 4 5 - - - - - - - 14.7 1014.7 0.0
17/04:30pm NE 5 7 - - - - - - - 16.7 1014.6 0.0
17/04:00pm ENE 6 9 - - - - - - - 17.4 1014.7 0.0
17/03:30pm ESE 6 9 - - - - - - - 17.6 1014.7 0.0
17/03:00pm SE 6 10 - - - - - - - 18.3 1014.9 0.0
17/02:30pm ESE 6 9 - - - - - - - 18.4 1015.1 0.0
17/02:00pm ESE 7 11 - - - - - - - 18.6 1015.3 0.0
17/01:30pm SSE 3 9 - - - - - - - 19.1 1015.5 0.0

Other formats

Comma delimited format used in spreadsheet applications
http://www.bom.gov.au/fwo/IDN60701/IDN60701.94786.axf

JavaScript Object Notation format (JSON) in row-major order
http://www.bom.gov.au/fwo/IDN60701/IDN60701.94786.json

Data quality

Most of these data are generated automatically and are frequently updated. Quality checks on data are not normally performed. It is possible for incorrect values to appear. Refer to information at About Latest Weather Observations and please check the disclaimer before using these data.